RJSF(METAR)
02/19 09:00
METAR RJSF 190000Z VRB02KT 9999 FEW005 SCT025 BKN130 03/M00 Q1025
RMK 1ST005 3SC025 7AC130 A3027=
戻る
トップページへ戻る
IMOC Co,.Ltd.